Time,TemperatureF,DewpointF,PressureIn,WindDirection,WindDirectionDegrees,WindSpeedMPH,WindSpeedGustMPH,Humidity,HourlyPrecipIn,Conditions,Clouds,dailyrainin,SoftwareType,DateUTC
2013-07-19 00:12:00,71.1,44.9,29.78,East,90,0.0,-999.0,39,-99.99,,,0.00,Acu-Link.com,2013-07-19 05:12:00,
2013-07-19 00:27:00,71.1,46.2,29.79,East,90,0.0,-999.0,41,-99.99,,,0.00,Acu-Link.com,2013-07-19 05:27:00,
2013-07-19 00:42:00,71.6,46.6,29.78,East,90,0.0,-999.0,41,-99.99,,,0.00,Acu-Link.com,2013-07-19 05:42:00,
2013-07-19 00:57:00,71.2,45.6,29.77,East,90,0.0,-999.0,40,-99.99,,,0.00,Acu-Link.com,2013-07-19 05:57:00,
2013-07-19 01:13:00,71.4,44.5,29.76,East,90,0.0,-999.0,38,-99.99,,,0.00,Acu-Link.com,2013-07-19 06:13:00,
2013-07-19 01:28:00,71.2,43.6,29.76,East,90,0.0,-999.0,37,-99.99,,,0.00,Acu-Link.com,2013-07-19 06:28:00,
2013-07-19 01:43:00,70.7,41.7,29.76,East,90,0.0,-999.0,35,-99.99,,,0.00,Acu-Link.com,2013-07-19 06:43:00,
2013-07-19 01:58:00,71.1,40.5,29.76,East,90,0.0,-999.0,33,-99.99,,,0.00,Acu-Link.com,2013-07-19 06:58:00,
2013-07-19 02:13:00,70.9,40.4,29.77,East,90,0.0,-999.0,33,-99.99,,,0.00,Acu-Link.com,2013-07-19 07:13:00,
2013-07-19 02:28:00,71.2,39.8,29.76,East,90,0.0,-999.0,32,-99.99,,,0.00,Acu-Link.com,2013-07-19 07:28:00,
2013-07-19 02:43:00,71.1,40.5,29.76,East,90,0.0,-999.0,33,-99.99,,,0.00,Acu-Link.com,2013-07-19 07:43:00,
2013-07-19 02:58:00,71.2,39.8,29.77,East,90,0.0,-999.0,32,-99.99,,,0.00,Acu-Link.com,2013-07-19 07:58:00,
2013-07-19 03:14:00,70.9,40.4,29.77,East,90,0.0,-999.0,33,-99.99,,,0.00,Acu-Link.com,2013-07-19 08:14:00,
2013-07-19 03:29:00,70.5,40.0,29.77,East,90,0.0,-999.0,33,-99.99,,,0.00,Acu-Link.com,2013-07-19 08:29:00,
2013-07-19 03:44:00,70.5,39.2,29.77,East,90,0.0,-999.0,32,-99.99,,,0.00,Acu-Link.com,2013-07-19 08:44:00,
2013-07-19 03:59:00,70.2,37.3,29.77,East,90,0.0,-999.0,30,-99.99,,,0.00,Acu-Link.com,2013-07-19 08:59:00,
2013-07-19 04:14:00,70.0,37.1,29.76,East,90,0.0,-999.0,30,-99.99,,,0.00,Acu-Link.com,2013-07-19 09:14:00,
2013-07-19 04:29:00,69.3,34.8,29.77,East,90,0.0,-999.0,28,-99.99,,,0.00,Acu-Link.com,2013-07-19 09:29:00,
2013-07-19 04:45:00,69.1,32.8,29.76,East,90,0.0,-999.0,26,-99.99,,,0.00,Acu-Link.com,2013-07-19 09:45:00,
2013-07-19 05:00:00,68.7,31.5,29.76,East,90,0.0,-999.0,25,-99.99,,,0.00,Acu-Link.com,2013-07-19 10:00:00,
2013-07-19 05:15:00,68.9,31.6,29.76,East,90,0.0,-999.0,25,-99.99,,,0.00,Acu-Link.com,2013-07-19 10:15:00,
2013-07-19 05:30:00,68.9,28.5,29.77,East,90,0.0,-999.0,22,-99.99,,,0.00,Acu-Link.com,2013-07-19 10:30:00,
2013-07-19 05:45:00,68.5,28.2,29.77,East,90,0.0,-999.0,22,-99.99,,,0.00,Acu-Link.com,2013-07-19 10:45:00,
2013-07-19 06:00:00,68.9,27.4,29.78,East,90,0.0,-999.0,21,-99.99,,,0.00,Acu-Link.com,2013-07-19 11:00:00,
2013-07-19 06:15:00,70.0,25.8,29.78,East,90,0.0,-999.0,19,-99.99,,,0.00,Acu-Link.com,2013-07-19 11:15:00,
2013-07-19 06:30:00,71.6,71.0,29.79,East,90,0.0,-999.0,98,-99.99,,,0.00,Acu-Link.com,2013-07-19 11:30:00,
2013-07-19 06:46:00,73.4,72.8,29.78,East,90,0.0,-999.0,98,-99.99,,,0.00,Acu-Link.com,2013-07-19 11:46:00,
2013-07-19 07:01:00,74.1,73.5,29.79,West,270,0.0,-999.0,98,-99.99,,,0.00,Acu-Link.com,2013-07-19 12:01:00,
2013-07-19 07:16:00,78.1,77.8,29.80,SE,135,0.0,-999.0,99,-99.99,,,0.00,Acu-Link.com,2013-07-19 12:16:00,
2013-07-19 07:31:00,81.1,80.5,29.79,East,90,0.0,-999.0,98,-99.99,,,0.00,Acu-Link.com,2013-07-19 12:31:00,
2013-07-19 07:46:00,83.5,82.9,29.80,WNW,292,0.0,-999.0,98,-99.99,,,0.00,Acu-Link.com,2013-07-19 12:46:00,
2013-07-19 08:01:00,85.3,76.5,29.80,East,90,0.0,-999.0,75,-99.99,,,0.00,Acu-Link.com,2013-07-19 13:01:00,
2013-07-19 08:16:00,85.6,80.9,29.80,ESE,112,0.0,-999.0,86,-99.99,,,0.00,Acu-Link.com,2013-07-19 13:16:00,
2013-07-19 08:31:00,89.8,84.7,29.80,East,90,1.7,-999.0,85,-99.99,,,0.00,Acu-Link.com,2013-07-19 13:31:00,
2013-07-19 08:46:00,84.2,83.9,29.80,NE,45,1.7,-999.0,99,-99.99,,,0.00,Acu-Link.com,2013-07-19 13:46:00,
2013-07-19 09:01:00,83.8,83.5,29.81,ESE,112,0.0,-999.0,99,-99.99,,,0.00,Acu-Link.com,2013-07-19 14:01:00,
2013-07-19 09:17:00,84.6,84.3,29.80,West,270,2.2,-999.0,99,-99.99,,,0.00,Acu-Link.com,2013-07-19 14:17:00,
2013-07-19 09:32:00,85.6,85.3,29.80,NW,315,0.0,-999.0,99,-99.99,,,0.00,Acu-Link.com,2013-07-19 14:32:00,
2013-07-19 09:47:00,86.2,85.9,29.80,North,0,3.7,-999.0,99,-99.99,,,0.00,Acu-Link.com,2013-07-19 14:47:00,
2013-07-19 10:02:00,86.9,86.6,29.79,NW,315,0.0,-999.0,99,-99.99,,,0.00,Acu-Link.com,2013-07-19 15:02:00,
2013-07-19 10:17:00,87.6,87.3,29.81,East,90,1.7,-999.0,99,-99.99,,,0.00,Acu-Link.com,2013-07-19 15:17:00,
2013-07-19 10:32:00,88.9,87.6,29.79,NW,315,0.0,-999.0,96,-99.99,,,0.00,Acu-Link.com,2013-07-19 15:32:00,
2013-07-19 10:47:00,88.2,87.2,29.79,ENE,67,2.7,-999.0,97,-99.99,,,0.00,Acu-Link.com,2013-07-19 15:47:00,
2013-07-19 11:02:00,88.2,85.6,29.79,West,270,3.7,-999.0,92,-99.99,,,0.00,Acu-Link.com,2013-07-19 16:02:00,
2013-07-19 11:18:00,88.3,85.7,29.79,ESE,112,3.2,-999.0,92,-99.99,,,0.00,Acu-Link.com,2013-07-19 16:18:00,
2013-07-19 11:33:00,89.8,85.0,29.78,NNW,337,2.7,-999.0,86,-99.99,,,0.00,Acu-Link.com,2013-07-19 16:33:00,
2013-07-19 11:48:00,90.3,87.0,29.78,WNW,292,4.7,-999.0,90,-99.99,,,0.00,Acu-Link.com,2013-07-19 16:48:00,
2013-07-19 12:03:00,90.3,87.0,29.78,SE,135,3.2,-999.0,90,-99.99,,,0.00,Acu-Link.com,2013-07-19 17:03:00,
2013-07-19 12:18:00,91.2,86.8,29.78,SE,135,2.7,-999.0,87,-99.99,,,0.00,Acu-Link.com,2013-07-19 17:18:00,
2013-07-19 12:33:00,91.6,85.7,29.77,WNW,292,3.7,-999.0,83,-99.99,,,0.00,Acu-Link.com,2013-07-19 17:33:00,
2013-07-19 12:48:00,89.6,84.8,29.77,SE,135,1.1,-999.0,86,-99.99,,,0.00,Acu-Link.com,2013-07-19 17:48:00,
2013-07-19 13:04:00,91.8,87.0,29.76,WSW,247,3.7,-999.0,86,-99.99,,,0.00,Acu-Link.com,2013-07-19 18:04:00,
2013-07-19 13:34:00,92.5,87.3,29.74,SSW,202,2.2,-999.0,85,-99.99,,,0.00,Acu-Link.com,2013-07-19 18:34:00,
2013-07-19 13:49:00,91.2,85.3,29.74,ESE,112,3.2,-999.0,83,-99.99,,,0.00,Acu-Link.com,2013-07-19 18:49:00,
2013-07-19 14:04:00,92.7,85.6,29.73,NNW,337,1.7,-999.0,80,-99.99,,,0.00,Acu-Link.com,2013-07-19 19:04:00,
2013-07-19 14:19:00,92.7,86.4,29.72,SW,225,2.7,-999.0,82,-99.99,,,0.00,Acu-Link.com,2013-07-19 19:19:00,
2013-07-19 14:34:00,92.1,85.4,29.72,SW,225,3.2,-999.0,81,-99.99,,,0.00,Acu-Link.com,2013-07-19 19:34:00,
2013-07-19 14:49:00,91.8,86.3,29.71,WSW,247,4.2,-999.0,84,-99.99,,,0.00,Acu-Link.com,2013-07-19 19:49:00,
2013-07-19 15:04:00,90.1,84.6,29.70,SW,225,3.7,-999.0,84,-99.99,,,0.01,Acu-Link.com,2013-07-19 20:04:00,
2013-07-19 15:20:00,92.1,85.0,29.70,West,270,3.7,-999.0,80,-99.99,,,0.01,Acu-Link.com,2013-07-19 20:20:00,
2013-07-19 15:35:00,90.0,86.3,29.69,SE,135,4.2,-999.0,89,-99.99,,,0.01,Acu-Link.com,2013-07-19 20:35:00,
2013-07-19 15:50:00,92.7,85.6,29.69,SW,225,2.7,-999.0,80,-99.99,,,0.01,Acu-Link.com,2013-07-19 20:50:00,
2013-07-19 16:05:00,91.9,84.4,29.69,NE,45,0.0,-999.0,79,-99.99,,,0.01,Acu-Link.com,2013-07-19 21:05:00,
2013-07-19 16:20:00,91.9,84.8,29.68,SE,135,0.0,-999.0,80,-99.99,,,0.01,Acu-Link.com,2013-07-19 21:20:00,
2013-07-19 16:35:00,92.8,84.9,29.67,SW,225,1.1,-999.0,78,-99.99,,,0.01,Acu-Link.com,2013-07-19 21:35:00,
2013-07-19 16:50:00,92.5,85.8,29.67,West,270,4.2,-999.0,81,-99.99,,,0.01,Acu-Link.com,2013-07-19 21:50:00,
2013-07-19 17:05:00,91.4,84.7,29.66,West,270,1.1,-999.0,81,-99.99,,,0.01,Acu-Link.com,2013-07-19 22:05:00,
2013-07-19 17:20:00,94.5,86.5,29.67,SW,225,0.0,-999.0,78,-99.99,,,0.01,Acu-Link.com,2013-07-19 22:20:00,
2013-07-19 17:36:00,97.3,86.7,29.66,South,180,0.0,-999.0,72,-99.99,,,0.01,Acu-Link.com,2013-07-19 22:36:00,
2013-07-19 17:51:00,97.3,85.4,29.65,West,270,2.7,-999.0,69,-99.99,,,0.01,Acu-Link.com,2013-07-19 22:51:00,
2013-07-19 18:06:00,97.2,85.7,29.66,West,270,2.2,-999.0,70,-99.99,,,0.01,Acu-Link.com,2013-07-19 23:06:00,
2013-07-19 18:21:00,97.0,86.0,29.66,ENE,67,0.0,-999.0,71,-99.99,,,0.01,Acu-Link.com,2013-07-19 23:21:00,
2013-07-19 18:36:00,96.3,85.3,29.65,NE,45,0.0,-999.0,71,-99.99,,,0.01,Acu-Link.com,2013-07-19 23:36:00,
2013-07-19 18:51:00,94.1,84.1,29.65,NNW,337,0.0,-999.0,73,-99.99,,,0.01,Acu-Link.com,2013-07-19 23:51:00,
2013-07-19 19:06:00,91.6,83.3,29.65,NNW,337,0.0,-999.0,77,-99.99,,,0.01,Acu-Link.com,2013-07-20 00:06:00,
2013-07-19 19:22:00,93.2,84.9,29.67,NE,45,0.0,-999.0,77,-99.99,,,0.01,Acu-Link.com,2013-07-20 00:22:00,
2013-07-19 19:37:00,90.9,83.8,29.66,NE,45,0.0,-999.0,80,-99.99,,,0.01,Acu-Link.com,2013-07-20 00:37:00,
2013-07-19 19:52:00,87.4,83.0,29.67,NE,45,0.0,-999.0,87,-99.99,,,0.01,Acu-Link.com,2013-07-20 00:52:00,
2013-07-19 20:07:00,84.2,83.6,29.67,NE,45,0.0,-999.0,98,-99.99,,,0.01,Acu-Link.com,2013-07-20 01:07:00,
2013-07-19 20:22:00,81.7,81.4,29.67,NE,45,0.0,-999.0,99,-99.99,,,0.01,Acu-Link.com,2013-07-20 01:22:00,
2013-07-19 20:37:00,81.1,80.8,29.68,SSE,157,3.2,-999.0,99,-99.99,,,0.01,Acu-Link.com,2013-07-20 01:37:00,
2013-07-19 20:52:00,80.4,80.1,29.68,SSE,157,0.0,-999.0,99,-99.99,,,0.01,Acu-Link.com,2013-07-20 01:52:00,
2013-07-19 21:07:00,79.7,79.4,29.68,West,270,0.0,-999.0,99,-99.99,,,0.01,Acu-Link.com,2013-07-20 02:07:00,
2013-07-19 21:22:00,78.6,78.3,29.68,West,270,0.0,-999.0,99,-99.99,,,0.01,Acu-Link.com,2013-07-20 02:22:00,
2013-07-19 21:38:00,77.5,77.2,29.68,West,270,0.0,-999.0,99,-99.99,,,0.01,Acu-Link.com,2013-07-20 02:38:00,
2013-07-19 21:53:00,76.5,76.2,29.68,West,270,0.0,-999.0,99,-99.99,,,0.01,Acu-Link.com,2013-07-20 02:53:00,
2013-07-19 22:08:00,75.4,74.5,29.68,West,270,0.0,-999.0,97,-99.99,,,0.01,Acu-Link.com,2013-07-20 03:08:00,
2013-07-19 22:23:00,74.8,54.9,29.69,West,270,0.0,-999.0,50,-99.99,,,0.01,Acu-Link.com,2013-07-20 03:23:00,
2013-07-19 22:38:00,74.7,24.0,29.70,West,270,0.0,-999.0,15,-99.99,,,0.01,Acu-Link.com,2013-07-20 03:38:00,
2013-07-19 22:53:00,73.8,33.7,29.69,West,270,0.0,-999.0,23,-99.99,,,0.01,Acu-Link.com,2013-07-20 03:53:00,
2013-07-19 23:08:00,73.9,45.3,29.69,West,270,0.0,-999.0,36,-99.99,,,0.01,Acu-Link.com,2013-07-20 04:08:00,
2013-07-19 23:23:00,73.8,36.8,29.69,West,270,0.0,-999.0,26,-99.99,,,0.01,Acu-Link.com,2013-07-20 04:23:00,
2013-07-19 23:38:00,73.4,32.2,29.69,West,270,0.0,-999.0,22,-99.99,,,0.01,Acu-Link.com,2013-07-20 04:38:00,
2013-07-19 23:54:00,73.2,33.2,29.69,ESE,112,0.0,-999.0,23,-99.99,,,0.01,Acu-Link.com,2013-07-20 04:54:00,